createdAt,value
2022-09-27T00:02:09.425Z,54.17
2022-09-27T00:04:59.842Z,54.15
2022-09-27T00:07:50.205Z,54.14
2022-09-27T00:10:40.141Z,54.10
2022-09-27T00:13:30.814Z,53.99
2022-09-27T00:16:20.882Z,54.03
2022-09-27T00:19:14.304Z,54.02
2022-09-27T00:22:04.514Z,54.08
2022-09-27T00:24:54.503Z,54.14
2022-09-27T00:27:44.471Z,54.20
2022-09-27T00:30:34.071Z,54.24
2022-09-27T00:33:24.948Z,54.15
2022-09-27T00:36:15.668Z,54.11
2022-09-27T00:39:06.350Z,54.15
2022-09-27T00:41:57.264Z,54.13
2022-09-27T00:45:10.576Z,54.08
2022-09-27T00:48:07.028Z,54.16
2022-09-27T00:51:01.268Z,54.10
2022-09-27T00:53:55.525Z,54.06
2022-09-27T00:56:47.913Z,53.98
2022-09-27T00:59:41.145Z,54.02
2022-09-27T01:02:33.333Z,53.98
2022-09-27T01:05:26.034Z,53.87
2022-09-27T01:08:15.931Z,53.74
2022-09-27T01:11:20.735Z,53.71
2022-09-27T01:14:44.979Z,53.58
2022-09-27T01:17:47.978Z,53.37
2022-09-27T01:21:09.985Z,53.31
2022-09-27T01:24:16.692Z,53.39
2022-09-27T01:27:46.821Z,53.46
2022-09-27T01:30:46.359Z,53.46
2022-09-27T01:33:47.758Z,53.38
2022-09-27T01:36:47.148Z,53.33
2022-09-27T01:39:48.014Z,53.33
2022-09-27T01:43:00.214Z,53.23
2022-09-27T01:45:57.564Z,53.33
2022-09-27T01:49:19.298Z,53.49
2022-09-27T01:52:14.284Z,53.50
2022-09-27T01:55:08.877Z,53.66
2022-09-27T01:58:16.749Z,53.85
2022-09-27T02:01:09.429Z,53.95
2022-09-27T02:04:01.932Z,54.02
2022-09-27T02:07:18.338Z,54.00
2022-09-27T02:10:14.562Z,54.00
2022-09-27T02:13:22.532Z,54.07
2022-09-27T02:16:25.175Z,54.14
2022-09-27T02:19:26.364Z,54.06
2022-09-27T02:22:23.413Z,54.04
2022-09-27T02:25:21.797Z,53.98
2022-09-27T02:28:22.867Z,54.15
2022-09-27T02:31:13.658Z,54.30
2022-09-27T02:34:07.512Z,54.49
2022-09-27T02:36:58.218Z,54.74
2022-09-27T02:39:49.078Z,54.84
2022-09-27T02:42:39.837Z,54.77
2022-09-27T02:45:37.041Z,54.89
2022-09-27T02:48:33.204Z,54.86
2022-09-27T02:51:39.888Z,54.88
2022-09-27T02:54:41.244Z,54.90
2022-09-27T02:58:18.225Z,54.98
2022-09-27T03:01:34.455Z,55.11
2022-09-27T03:04:41.021Z,55.19
2022-09-27T03:07:32.669Z,55.01
2022-09-27T03:10:25.016Z,54.89
2022-09-27T03:13:16.161Z,54.72
2022-09-27T03:16:08.361Z,54.69
2022-09-27T03:18:58.416Z,54.77
2022-09-27T03:22:07.618Z,54.96
2022-09-27T03:24:58.535Z,55.23
2022-09-27T03:27:50.161Z,55.35
2022-09-27T03:30:42.243Z,55.48
2022-09-27T03:33:33.644Z,55.49
2022-09-27T03:36:28.948Z,55.58
2022-09-27T03:39:19.194Z,55.66
2022-09-27T03:42:10.007Z,55.80
2022-09-27T03:45:00.683Z,55.92
2022-09-27T03:47:51.102Z,56.01
2022-09-27T03:50:41.200Z,56.07
2022-09-27T03:53:31.695Z,56.13
2022-09-27T03:56:22.439Z,56.14
2022-09-27T03:59:12.627Z,56.19
2022-09-27T04:02:22.893Z,56.24
2022-09-27T04:05:32.722Z,56.31
2022-09-27T04:08:35.243Z,56.35
2022-09-27T04:11:25.695Z,56.32
2022-09-27T04:14:15.929Z,56.34
2022-09-27T04:17:25.802Z,56.25
2022-09-27T04:20:48.318Z,56.22
2022-09-27T04:23:38.759Z,56.25
2022-09-27T04:26:29.050Z,56.27
2022-09-27T04:29:25.037Z,56.32
2022-09-27T04:32:16.527Z,56.27
2022-09-27T04:36:03.514Z,56.48
2022-09-27T04:38:53.886Z,56.56
2022-09-27T04:41:45.288Z,56.62
2022-09-27T04:44:35.936Z,56.63
2022-09-27T04:47:26.364Z,56.73
2022-09-27T04:50:18.217Z,56.74
2022-09-27T04:53:21.116Z,56.82
2022-09-27T04:56:10.719Z,56.85
2022-09-27T04:59:01.378Z,56.85
2022-09-27T05:01:53.201Z,56.92
2022-09-27T05:04:59.507Z,56.95
2022-09-27T05:07:52.754Z,56.93
2022-09-27T05:10:51.867Z,56.88
2022-09-27T05:13:43.970Z,57.00
2022-09-27T05:16:36.247Z,56.82
2022-09-27T05:20:05.499Z,56.65
2022-09-27T05:23:07.709Z,56.45
2022-09-27T05:25:57.819Z,56.33
2022-09-27T05:28:48.395Z,56.21
2022-09-27T05:31:39.000Z,56.08
2022-09-27T05:34:29.494Z,55.97
2022-09-27T05:37:21.412Z,55.88
2022-09-27T05:40:36.624Z,55.82
2022-09-27T05:43:24.106Z,55.76
2022-09-27T05:46:14.318Z,55.68
2022-09-27T05:49:06.141Z,55.68
2022-09-27T05:51:56.018Z,55.61
2022-09-27T05:54:47.446Z,55.49
2022-09-27T05:57:38.519Z,55.46
2022-09-27T06:00:31.684Z,55.44
2022-09-27T06:03:23.435Z,55.31
2022-09-27T06:06:25.710Z,55.29
2022-09-27T06:09:18.920Z,55.46
2022-09-27T06:12:12.044Z,55.33
2022-09-27T06:15:02.020Z,55.09
2022-09-27T06:18:06.392Z,54.95
2022-09-27T06:20:59.957Z,54.81
2022-09-27T06:23:54.187Z,54.62
2022-09-27T06:26:50.738Z,54.56
2022-09-27T06:29:59.254Z,54.39
2022-09-27T06:33:12.279Z,54.30
2022-09-27T06:36:07.103Z,54.17
2022-09-27T06:39:02.368Z,54.26
2022-09-27T06:42:04.139Z,54.14
2022-09-27T06:45:14.900Z,54.16
2022-09-27T06:48:32.525Z,53.91
2022-09-27T06:51:34.537Z,53.74
2022-09-27T06:54:24.395Z,53.49
2022-09-27T06:57:35.322Z,53.64
2022-09-27T07:00:27.891Z,53.07
2022-09-27T07:03:41.591Z,52.83
2022-09-27T07:06:41.264Z,52.79
2022-09-27T07:09:51.664Z,52.47
2022-09-27T07:12:42.671Z,52.24
2022-09-27T07:15:36.462Z,52.11
2022-09-27T07:18:29.132Z,52.11
2022-09-27T07:21:19.349Z,52.07
2022-09-27T07:24:09.805Z,52.04
2022-09-27T07:26:59.714Z,51.82
2022-09-27T07:29:50.478Z,51.80
2022-09-27T07:32:41.409Z,51.63
2022-09-27T07:35:33.793Z,51.66
2022-09-27T07:38:23.776Z,51.49
2022-09-27T07:41:15.891Z,51.27
2022-09-27T07:44:08.271Z,51.14
2022-09-27T07:47:07.732Z,51.07
2022-09-27T07:50:17.080Z,50.97
2022-09-27T07:53:20.067Z,50.89
2022-09-27T07:56:19.591Z,50.81
2022-09-27T07:59:10.008Z,51.19
2022-09-27T08:02:00.317Z,51.22
2022-09-27T08:04:50.794Z,50.93
2022-09-27T08:07:42.488Z,50.86
2022-09-27T08:10:34.222Z,50.76
2022-09-27T08:13:24.445Z,50.60
2022-09-27T08:16:16.571Z,50.55
2022-09-27T08:19:27.497Z,50.54
2022-09-27T08:22:27.592Z,50.38
2022-09-27T08:25:25.811Z,50.32
2022-09-27T08:28:35.226Z,50.15
2022-09-27T08:31:37.667Z,50.02
2022-09-27T08:34:28.533Z,49.92
2022-09-27T08:37:19.550Z,49.94
2022-09-27T08:40:17.974Z,50.13
2022-09-27T08:43:21.440Z,49.91
2022-09-27T08:46:27.550Z,49.83
2022-09-27T08:49:25.596Z,49.94
2022-09-27T08:52:22.070Z,50.03
2022-09-27T08:55:23.396Z,49.47
2022-09-27T08:58:21.336Z,49.42
2022-09-27T09:01:16.733Z,49.38
2022-09-27T09:04:23.749Z,49.51
2022-09-27T09:07:32.539Z,49.18
2022-09-27T09:10:55.698Z,48.82
2022-09-27T09:14:23.367Z,47.77
2022-09-27T09:17:23.965Z,46.42
2022-09-27T09:21:01.059Z,45.15
2022-09-27T09:24:13.712Z,44.34
2022-09-27T09:27:13.931Z,44.00
2022-09-27T09:30:25.170Z,43.41
2022-09-27T09:33:26.924Z,43.37
2022-09-27T09:36:25.671Z,42.81
2022-09-27T09:39:19.746Z,42.46
2022-09-27T09:42:14.827Z,42.30
2022-09-27T09:45:09.767Z,42.52
2022-09-27T09:48:06.524Z,42.56
2022-09-27T09:51:00.440Z,42.41
2022-09-27T09:53:54.243Z,42.47
2022-09-27T09:56:59.500Z,42.48
2022-09-27T09:59:54.460Z,42.33
2022-09-27T10:02:46.800Z,42.43
2022-09-27T10:05:43.526Z,42.42
2022-09-27T10:08:33.788Z,42.42
2022-09-27T10:11:41.383Z,42.67
2022-09-27T10:14:41.785Z,42.61
2022-09-27T10:17:39.962Z,42.28
2022-09-27T10:20:36.847Z,42.16
2022-09-27T10:23:28.773Z,42.12
2022-09-27T10:26:28.152Z,42.08
2022-09-27T10:29:25.412Z,42.17
2022-09-27T10:32:27.376Z,42.15
2022-09-27T10:35:40.593Z,42.16
2022-09-27T10:38:34.001Z,42.27
2022-09-27T10:41:37.812Z,42.28
2022-09-27T10:44:33.102Z,42.35
2022-09-27T10:47:37.727Z,42.31
2022-09-27T10:51:02.236Z,42.39
2022-09-27T10:54:24.027Z,42.60
2022-09-27T10:57:23.216Z,42.62
2022-09-27T11:00:32.567Z,42.94
2022-09-27T11:03:25.341Z,43.09
2022-09-27T11:06:32.241Z,43.01
2022-09-27T11:09:27.079Z,43.04
2022-09-27T11:12:22.872Z,43.16
2022-09-27T11:15:24.575Z,43.32
2022-09-27T11:18:30.396Z,43.40
2022-09-27T11:21:31.601Z,43.55
2022-09-27T11:24:33.208Z,43.70
2022-09-27T11:27:37.027Z,43.70
2022-09-27T11:30:38.600Z,43.90
2022-09-27T11:34:36.513Z,43.94
2022-09-27T11:37:40.049Z,43.79
2022-09-27T11:40:44.851Z,43.78
2022-09-27T11:43:52.118Z,43.64
2022-09-27T11:46:45.715Z,43.60
2022-09-27T11:50:07.466Z,43.71
2022-09-27T11:53:15.712Z,43.69
2022-09-27T11:56:13.927Z,43.70
2022-09-27T11:59:24.525Z,43.80
2022-09-27T12:02:35.907Z,43.74
2022-09-27T12:05:32.998Z,43.73
2022-09-27T12:08:40.246Z,43.78
2022-09-27T12:11:37.306Z,43.76
2022-09-27T12:14:36.317Z,43.55
2022-09-27T12:17:31.195Z,43.69
2022-09-27T12:20:24.481Z,43.69
2022-09-27T12:23:23.696Z,43.77
2022-09-27T12:26:32.706Z,44.26
2022-09-27T12:29:27.975Z,44.39
2022-09-27T12:32:23.541Z,44.28
2022-09-27T12:35:23.508Z,44.14
2022-09-27T12:38:18.818Z,44.15
2022-09-27T12:41:12.873Z,44.08
2022-09-27T12:44:14.103Z,44.09
2022-09-27T12:47:26.124Z,43.88
2022-09-27T12:50:30.642Z,43.96
2022-09-27T12:53:25.437Z,43.83
2022-09-27T12:56:31.891Z,43.92
2022-09-27T12:59:35.905Z,43.96
2022-09-27T13:03:11.174Z,44.02
2022-09-27T13:06:34.265Z,44.03
2022-09-27T13:09:45.398Z,43.95
2022-09-27T13:12:38.547Z,43.99
2022-09-27T13:15:33.352Z,44.10
2022-09-27T13:18:51.495Z,44.08
2022-09-27T13:21:59.922Z,44.15
2022-09-27T13:25:40.649Z,44.25
2022-09-27T13:29:02.296Z,44.27
2022-09-27T13:32:28.862Z,44.30
2022-09-27T13:35:33.690Z,44.33
2022-09-27T13:38:33.245Z,44.34
2022-09-27T13:41:23.932Z,44.26
2022-09-27T13:44:27.611Z,44.25
2022-09-27T13:47:33.035Z,44.40
2022-09-27T13:50:29.357Z,44.39
2022-09-27T13:53:30.018Z,44.63
2022-09-27T13:56:53.310Z,44.63
2022-09-27T13:59:52.503Z,44.57
2022-09-27T14:03:09.267Z,44.60
2022-09-27T14:06:07.889Z,44.52
2022-09-27T14:09:03.997Z,44.66
2022-09-27T14:11:58.255Z,44.75
2022-09-27T14:14:50.846Z,44.76
2022-09-27T14:17:46.049Z,44.79
2022-09-27T14:20:41.879Z,44.80
2022-09-27T14:23:40.916Z,44.81
2022-09-27T14:26:31.195Z,44.83
2022-09-27T14:29:24.185Z,44.89
2022-09-27T14:32:16.614Z,45.06
2022-09-27T14:35:33.888Z,45.00
2022-09-27T14:38:38.192Z,45.07
2022-09-27T14:41:40.993Z,45.13
2022-09-27T14:44:33.571Z,45.15
2022-09-27T14:47:25.480Z,45.22
2022-09-27T14:50:24.631Z,45.23
2022-09-27T14:53:26.007Z,45.39
2022-09-27T14:56:19.993Z,45.42
2022-09-27T14:59:18.502Z,45.52
2022-09-27T15:02:20.395Z,45.55
2022-09-27T15:05:18.053Z,45.45
2022-09-27T15:08:08.575Z,45.24
2022-09-27T15:10:58.967Z,45.18
2022-09-27T15:13:52.772Z,45.36
2022-09-27T15:16:43.230Z,45.43
2022-09-27T15:19:33.650Z,45.78
2022-09-27T15:22:35.901Z,45.81
2022-09-27T15:25:32.524Z,46.14
2022-09-27T15:28:22.578Z,46.21
2022-09-27T15:31:13.601Z,46.24
2022-09-27T15:34:05.406Z,46.24
2022-09-27T15:37:00.258Z,46.38
2022-09-27T15:39:50.015Z,46.35
2022-09-27T15:42:58.786Z,46.41
2022-09-27T15:45:54.474Z,46.44
2022-09-27T15:48:44.812Z,46.39
2022-09-27T15:51:44.993Z,46.47
2022-09-27T15:54:36.478Z,46.55
2022-09-27T15:57:29.104Z,46.62
2022-09-27T16:00:23.094Z,46.49
2022-09-27T16:03:15.250Z,46.45
2022-09-27T16:06:08.303Z,46.45
2022-09-27T16:08:59.713Z,46.57
2022-09-27T16:11:52.035Z,46.65
2022-09-27T16:14:43.975Z,46.77
2022-09-27T16:17:38.588Z,46.85
2022-09-27T16:20:38.443Z,46.66
2022-09-27T16:23:30.276Z,46.79
2022-09-27T16:26:26.205Z,46.88
2022-09-27T16:29:17.285Z,46.95
2022-09-27T16:32:08.635Z,46.83
2022-09-27T16:34:59.673Z,46.85
2022-09-27T16:37:49.781Z,46.78
2022-09-27T16:40:41.218Z,46.81
2022-09-27T16:43:31.853Z,46.86
2022-09-27T16:46:22.262Z,47.04
2022-09-27T16:49:32.206Z,47.29
2022-09-27T16:52:22.131Z,47.33
2022-09-27T16:55:12.802Z,47.51
2022-09-27T16:58:05.491Z,47.51
2022-09-27T17:00:58.581Z,47.51
2022-09-27T17:03:56.771Z,47.59
2022-09-27T17:06:47.674Z,47.75
2022-09-27T17:09:37.792Z,47.70
2022-09-27T17:12:28.158Z,47.82
2022-09-27T17:15:19.074Z,47.88
2022-09-27T17:18:08.909Z,47.88
2022-09-27T17:21:04.924Z,47.84
2022-09-27T17:23:55.194Z,47.89
2022-09-27T17:26:45.552Z,47.93
2022-09-27T17:29:35.736Z,47.90
2022-09-27T17:32:25.664Z,47.71
2022-09-27T17:35:15.908Z,47.87
2022-09-27T17:38:05.960Z,48.13
2022-09-27T17:41:04.605Z,48.20
2022-09-27T17:43:57.761Z,48.34
2022-09-27T17:47:08.598Z,48.36
2022-09-27T17:50:16.955Z,48.49
2022-09-27T17:53:06.776Z,48.42
2022-09-27T17:56:03.774Z,48.73
2022-09-27T17:58:57.061Z,49.26
2022-09-27T18:01:50.582Z,49.28
2022-09-27T18:04:40.681Z,49.50
2022-09-27T18:07:32.406Z,49.62
2022-09-27T18:10:25.165Z,49.61
2022-09-27T18:13:16.383Z,49.61
2022-09-27T18:16:09.988Z,49.59
2022-09-27T18:19:01.027Z,49.66
2022-09-27T18:21:53.956Z,49.61
2022-09-27T18:24:49.874Z,49.45
2022-09-27T18:27:46.343Z,49.35
2022-09-27T18:30:41.063Z,49.38
2022-09-27T18:33:31.339Z,49.40
2022-09-27T18:36:25.282Z,49.40
2022-09-27T18:39:24.301Z,49.55
2022-09-27T18:42:16.739Z,49.46
2022-09-27T18:45:12.648Z,49.52
2022-09-27T18:48:07.919Z,49.30
2022-09-27T18:51:02.193Z,49.36
2022-09-27T18:54:05.017Z,49.33
2022-09-27T18:57:00.667Z,49.56
2022-09-27T18:59:50.691Z,49.66
2022-09-27T19:02:42.601Z,49.75
2022-09-27T19:05:37.089Z,49.94
2022-09-27T19:08:29.740Z,49.93
2022-09-27T19:11:24.730Z,50.00
2022-09-27T19:14:20.880Z,50.10
2022-09-27T19:17:17.942Z,50.04
2022-09-27T19:20:15.279Z,49.94
2022-09-27T19:23:10.894Z,49.73
2022-09-27T19:26:03.468Z,49.62
2022-09-27T19:28:58.286Z,49.63
2022-09-27T19:31:52.388Z,49.63
2022-09-27T19:34:47.996Z,49.67
2022-09-27T19:37:43.596Z,49.63
2022-09-27T19:40:36.163Z,49.66
2022-09-27T19:43:30.767Z,49.77
2022-09-27T19:46:27.079Z,49.69
2022-09-27T19:49:19.002Z,49.74
2022-09-27T19:52:14.155Z,49.61
2022-09-27T19:55:06.113Z,49.56
2022-09-27T19:57:58.353Z,49.74
2022-09-27T20:00:59.686Z,49.71
2022-09-27T20:03:55.410Z,49.63
2022-09-27T20:06:46.646Z,49.69
2022-09-27T20:09:37.871Z,49.75
2022-09-27T20:12:33.772Z,49.86
2022-09-27T20:15:34.086Z,49.98
2022-09-27T20:18:27.024Z,50.02
2022-09-27T20:21:19.178Z,50.04
2022-09-27T20:24:12.036Z,50.14
2022-09-27T20:27:01.809Z,50.04
2022-09-27T20:29:53.383Z,50.09
2022-09-27T20:33:05.336Z,50.06
2022-09-27T20:35:58.679Z,50.14
2022-09-27T20:38:58.181Z,50.15
2022-09-27T20:41:54.190Z,50.04
2022-09-27T20:44:54.352Z,50.18
2022-09-27T20:47:44.995Z,50.08
2022-09-27T20:50:36.295Z,50.22
2022-09-27T20:53:28.192Z,50.19
2022-09-27T20:56:22.968Z,50.19
2022-09-27T20:59:18.917Z,50.07
2022-09-27T21:02:09.509Z,50.02
2022-09-27T21:04:59.818Z,50.15
2022-09-27T21:07:53.869Z,50.24
2022-09-27T21:10:48.049Z,50.27
2022-09-27T21:13:41.500Z,50.29
2022-09-27T21:16:36.634Z,50.24
2022-09-27T21:19:29.322Z,50.37
2022-09-27T21:22:20.547Z,50.36
2022-09-27T21:25:11.796Z,50.45
2022-09-27T21:28:04.368Z,50.52
2022-09-27T21:30:54.918Z,50.55
2022-09-27T21:33:48.143Z,50.73
2022-09-27T21:36:40.037Z,50.75
2022-09-27T21:39:30.625Z,50.75
2022-09-27T21:42:20.979Z,50.81
2022-09-27T21:45:12.824Z,50.81
2022-09-27T21:48:03.173Z,50.90
2022-09-27T21:50:53.132Z,51.04
2022-09-27T21:53:46.016Z,51.13
2022-09-27T21:56:38.299Z,51.15
2022-09-27T21:59:27.937Z,51.22
2022-09-27T22:02:19.311Z,51.34
2022-09-27T22:05:10.541Z,51.26
2022-09-27T22:08:00.405Z,51.41
2022-09-27T22:10:52.632Z,51.41
2022-09-27T22:13:43.010Z,51.51
2022-09-27T22:16:32.868Z,51.48
2022-09-27T22:19:22.323Z,51.63
2022-09-27T22:22:12.190Z,51.65
2022-09-27T22:25:02.532Z,51.57
2022-09-27T22:27:52.245Z,51.64
2022-09-27T22:30:41.892Z,51.65
2022-09-27T22:33:32.226Z,51.83
2022-09-27T22:36:23.144Z,51.85
2022-09-27T22:39:13.849Z,51.91
2022-09-27T22:42:04.993Z,52.01
2022-09-27T22:44:54.916Z,52.02
2022-09-27T22:47:45.814Z,52.13
2022-09-27T22:50:36.242Z,52.24
2022-09-27T22:53:26.695Z,52.32
2022-09-27T22:56:18.493Z,52.36
2022-09-27T22:59:08.527Z,52.37
2022-09-27T23:01:59.040Z,52.47
2022-09-27T23:04:50.032Z,52.46
2022-09-27T23:07:40.567Z,52.52
2022-09-27T23:10:30.953Z,52.58
2022-09-27T23:13:21.742Z,52.60
2022-09-27T23:16:14.200Z,52.58
2022-09-27T23:19:05.463Z,52.62
2022-09-27T23:21:55.565Z,52.55
2022-09-27T23:24:45.386Z,52.62
2022-09-27T23:27:45.337Z,52.68
2022-09-27T23:30:35.245Z,52.79
2022-09-27T23:33:28.301Z,52.77
2022-09-27T23:36:20.754Z,52.79
2022-09-27T23:39:11.444Z,52.84
2022-09-27T23:42:01.645Z,52.92
2022-09-27T23:44:53.551Z,52.92
2022-09-27T23:47:44.280Z,52.95
2022-09-27T23:50:34.572Z,53.04
2022-09-27T23:53:25.854Z,52.98
2022-09-27T23:56:17.827Z,53.02
2022-09-27T23:59:08.933Z,53.05
